createdAt,value
2019-04-14T00:00:23.238Z,19.10
2019-04-14T00:02:57.635Z,15.50
2019-04-14T00:05:25.711Z,17.03
2019-04-14T00:07:53.826Z,17.50
2019-04-14T00:10:22.538Z,19.13
2019-04-14T00:12:51.506Z,19.53
2019-04-14T00:15:29.354Z,23.30
2019-04-14T00:17:48.851Z,22.07
2019-04-14T00:20:19.057Z,22.83
2019-04-14T00:22:46.910Z,27.37
2019-04-14T00:25:15.173Z,26.50
2019-04-14T00:27:43.211Z,25.43
2019-04-14T00:30:11.893Z,28.07
2019-04-14T00:32:52.980Z,27.80
2019-04-14T00:35:42.785Z,26.70
2019-04-14T00:38:28.424Z,30.40
2019-04-14T00:41:07.217Z,28.23
2019-04-14T00:43:39.889Z,29.40
2019-04-14T00:49:07.048Z,34.50
2019-04-14T00:51:37.738Z,32.83
2019-04-14T00:57:31.204Z,37.53
2019-04-14T00:59:59.531Z,36.93
2019-04-14T01:02:42.934Z,32.53
2019-04-14T01:05:10.920Z,41.03
2019-04-14T01:07:48.047Z,37.33
2019-04-14T01:10:15.611Z,38.53
2019-04-14T01:12:47.395Z,42.40
2019-04-14T01:15:15.814Z,39.60
2019-04-14T01:17:43.902Z,42.37
2019-04-14T01:20:14.530Z,45.33
2019-04-14T01:22:42.447Z,51.33
2019-04-14T01:25:10.660Z,55.00
2019-04-14T01:27:40.556Z,54.27
2019-04-14T01:30:09.055Z,49.73
2019-04-14T01:32:37.249Z,48.07
2019-04-14T01:35:05.343Z,49.13
2019-04-14T01:37:34.064Z,49.13
2019-04-14T01:40:01.607Z,38.60
2019-04-14T01:42:29.129Z,48.00
2019-04-14T01:44:57.039Z,52.80
2019-04-14T01:47:24.971Z,51.33
2019-04-14T01:49:53.062Z,44.47
2019-04-14T01:55:59.123Z,46.27
2019-04-14T02:01:32.487Z,45.20
2019-04-14T02:04:00.662Z,45.00
2019-04-14T02:06:28.789Z,48.90
2019-04-14T02:08:57.020Z,51.60
2019-04-14T02:11:38.222Z,50.47
2019-04-14T02:14:06.302Z,47.77
2019-04-14T02:54:51.932Z,53.17
2019-04-14T02:59:49.893Z,55.70
2019-04-14T03:04:54.898Z,60.00
2019-04-14T03:07:26.413Z,57.80
2019-04-14T03:12:24.891Z,56.73
2019-04-14T03:17:45.187Z,59.80
2019-04-14T03:23:05.043Z,56.07
2019-04-14T03:25:58.530Z,56.23
2019-04-14T03:36:44.899Z,58.80
2019-04-14T03:38:53.290Z,69.23
2019-04-14T03:41:17.311Z,77.03
2019-04-14T03:43:39.469Z,81.67
2019-04-14T03:48:56.071Z,84.07
2019-04-14T03:51:08.494Z,89.97
2019-04-14T03:53:36.104Z,92.13
2019-04-14T03:56:04.276Z,85.00
2019-04-14T03:58:29.282Z,86.53
2019-04-14T04:00:57.610Z,93.90
2019-04-14T04:03:26.056Z,84.43
2019-04-14T04:05:54.229Z,89.33
2019-04-14T04:08:22.461Z,92.27
2019-04-14T04:10:51.088Z,102.63
2019-04-14T04:13:19.384Z,100.77
2019-04-14T04:15:47.751Z,109.63
2019-04-14T04:18:22.005Z,173.22
2019-04-14T04:21:18.393Z,133.30
2019-04-14T04:24:05.043Z,122.37
2019-04-14T04:26:52.253Z,125.50
2019-04-14T04:29:39.808Z,126.63
2019-04-14T04:32:18.441Z,123.20
2019-04-14T04:35:06.475Z,117.03
2019-04-14T04:37:52.034Z,122.77
2019-04-14T04:40:22.552Z,113.17
2019-04-14T04:42:50.500Z,113.30
2019-04-14T04:45:19.127Z,130.80
2019-04-14T04:47:47.026Z,114.70
2019-04-14T04:50:15.063Z,117.70
2019-04-14T04:52:42.962Z,119.03
2019-04-14T04:55:11.246Z,125.07
2019-04-14T04:57:39.521Z,135.20
2019-04-14T05:00:07.527Z,126.97
2019-04-14T05:02:35.370Z,133.17
2019-04-14T05:05:03.562Z,140.37
2019-04-14T05:07:31.706Z,126.00
2019-04-14T05:10:17.505Z,138.60
2019-04-14T05:12:52.218Z,125.17
2019-04-14T05:15:34.426Z,137.93
2019-04-14T05:18:02.784Z,128.13
2019-04-14T05:20:31.291Z,138.77
2019-04-14T05:22:59.389Z,160.17
2019-04-14T05:25:27.587Z,155.23
2019-04-14T05:27:55.867Z,162.23
2019-04-14T05:30:24.308Z,145.43
2019-04-14T05:32:52.241Z,143.00
2019-04-14T05:35:20.597Z,158.90
2019-04-14T05:37:48.677Z,161.63
2019-04-14T05:40:16.802Z,154.57
2019-04-14T05:42:45.011Z,143.37
2019-04-14T05:45:13.371Z,142.07
2019-04-14T05:47:41.486Z,137.43
2019-04-14T05:50:09.514Z,139.43
2019-04-14T05:52:38.236Z,123.33
2019-04-14T05:55:06.612Z,112.27
2019-04-14T05:57:35.188Z,98.03
2019-04-14T06:00:05.903Z,97.67
2019-04-14T06:02:33.609Z,90.13
2019-04-14T06:05:01.535Z,79.00
2019-04-14T06:07:29.375Z,69.07
2019-04-14T06:09:56.950Z,71.10
2019-04-14T06:12:24.939Z,63.50
2019-04-14T06:14:52.805Z,61.20
2019-04-14T06:17:20.370Z,59.63
2019-04-14T06:19:47.956Z,54.88
2019-04-14T06:22:15.531Z,48.20
2019-04-14T06:24:43.119Z,49.40
2019-04-14T06:27:10.669Z,47.70
2019-04-14T06:29:38.536Z,45.70
2019-04-14T06:32:20.538Z,39.07
2019-04-14T06:35:10.633Z,41.50
2019-04-14T06:37:44.903Z,39.53
2019-04-14T06:40:12.532Z,43.27
2019-04-14T06:42:40.069Z,41.20
2019-04-14T06:45:07.693Z,42.07
2019-04-14T06:47:35.248Z,45.43
2019-04-14T06:50:03.361Z,45.67
2019-04-14T06:52:31.198Z,40.17
2019-04-14T06:54:58.923Z,39.80
2019-04-14T06:57:26.415Z,40.50
2019-04-14T06:59:54.169Z,36.17
2019-04-14T07:02:22.278Z,45.93
2019-04-14T07:04:50.193Z,39.07
2019-04-14T07:07:18.134Z,37.00
2019-04-14T07:09:45.648Z,38.13
2019-04-14T07:12:13.251Z,37.97
2019-04-14T07:14:40.898Z,37.03
2019-04-14T07:17:08.520Z,38.03
2019-04-14T07:19:36.355Z,37.20
2019-04-14T07:22:04.991Z,36.17
2019-04-14T07:24:32.575Z,31.03
2019-04-14T07:27:00.173Z,35.57
2019-04-14T07:29:31.140Z,35.17
2019-04-14T07:32:35.423Z,33.40
2019-04-14T07:35:25.455Z,32.90
2019-04-14T07:38:15.916Z,35.20
2019-04-14T07:41:17.998Z,36.60
2019-04-14T07:44:15.080Z,35.17
2019-04-14T07:47:02.753Z,35.93
2019-04-14T07:49:48.449Z,32.50
2019-04-14T07:52:23.038Z,36.57
2019-04-14T07:54:56.312Z,37.07
2019-04-14T07:57:46.495Z,27.53
2019-04-14T08:00:30.041Z,35.90
2019-04-14T08:03:02.356Z,31.80
2019-04-14T08:05:33.266Z,35.03
2019-04-14T08:08:01.149Z,30.43
2019-04-14T08:10:28.757Z,34.27
2019-04-14T08:12:56.594Z,32.20
2019-04-14T08:15:24.240Z,36.50
2019-04-14T08:17:52.064Z,33.90
2019-04-14T08:20:27.334Z,34.80
2019-04-14T08:22:48.995Z,35.50
2019-04-14T08:25:16.529Z,37.93
2019-04-14T08:27:44.105Z,39.17
2019-04-14T08:30:11.627Z,39.10
2019-04-14T08:32:39.528Z,39.73
2019-04-14T08:35:07.325Z,40.43
2019-04-14T08:37:34.889Z,41.57
2019-04-14T08:40:03.822Z,38.40
2019-04-14T08:42:57.204Z,43.27
2019-04-14T08:45:45.526Z,42.67
2019-04-14T08:48:35.748Z,43.27
2019-04-14T08:51:08.132Z,42.13
2019-04-14T08:53:49.602Z,39.33
2019-04-14T08:56:28.019Z,46.00
2019-04-14T08:59:13.906Z,38.17
2019-04-14T09:02:03.353Z,44.43
2019-04-14T09:05:02.843Z,44.23
2019-04-14T09:07:52.852Z,42.00
2019-04-14T09:10:23.665Z,29.57
2019-04-14T09:12:52.775Z,41.13
2019-04-14T09:15:21.897Z,42.63
2019-04-14T09:17:49.768Z,45.17
2019-04-14T09:20:17.382Z,43.30
2019-04-14T09:22:46.213Z,44.50
2019-04-14T09:25:13.765Z,45.63
2019-04-14T09:27:41.319Z,46.53
2019-04-14T09:30:09.081Z,48.63
2019-04-14T09:32:36.683Z,46.57
2019-04-14T09:35:04.590Z,44.60
2019-04-14T09:37:32.053Z,44.70
2019-04-14T09:39:59.642Z,42.07
2019-04-14T09:42:27.416Z,40.53
2019-04-14T09:44:55.262Z,45.07
2019-04-14T09:47:23.018Z,45.10
2019-04-14T09:49:50.570Z,44.47
2019-04-14T09:52:18.421Z,43.63
2019-04-14T09:54:45.997Z,42.63
2019-04-14T09:57:14.570Z,44.70
2019-04-14T09:59:42.124Z,46.57
2019-04-14T10:02:10.074Z,43.30
2019-04-14T10:04:37.637Z,42.57
2019-04-14T10:07:05.229Z,46.03
2019-04-14T10:09:33.115Z,45.97
2019-04-14T10:12:01.111Z,49.47
2019-04-14T10:14:29.002Z,45.03
2019-04-14T10:16:56.605Z,47.33
2019-04-14T10:19:24.398Z,46.27
2019-04-14T10:21:51.966Z,42.07
2019-04-14T10:24:19.782Z,39.27
2019-04-14T10:26:48.433Z,35.80
2019-04-14T10:29:15.887Z,36.50
2019-04-14T10:31:43.460Z,32.33
2019-04-14T10:34:11.120Z,33.40
2019-04-14T10:36:38.681Z,35.73
2019-04-14T10:39:06.890Z,39.30
2019-04-14T10:41:36.464Z,34.30
2019-04-14T10:44:03.989Z,32.10
2019-04-14T10:46:31.846Z,31.57
2019-04-14T10:48:59.375Z,32.00
2019-04-14T10:51:30.375Z,31.33
2019-04-14T10:53:56.178Z,31.63
2019-04-14T10:56:24.025Z,29.77
2019-04-14T10:58:51.643Z,28.90
2019-04-14T11:01:19.222Z,30.03
2019-04-14T11:03:46.885Z,28.27
2019-04-14T11:06:21.141Z,30.83
2019-04-14T11:11:48.095Z,28.83
2019-04-14T11:14:15.790Z,30.70
2019-04-14T11:16:44.526Z,28.63
2019-04-14T11:19:13.260Z,30.67
2019-04-14T11:21:43.097Z,28.40
2019-04-14T11:24:11.105Z,27.33
2019-04-14T11:26:38.807Z,29.17
2019-04-14T11:29:06.457Z,27.93
2019-04-14T11:31:51.950Z,27.17
2019-04-14T11:34:20.305Z,26.30
2019-04-14T11:37:10.714Z,27.40
2019-04-14T11:39:38.567Z,27.37
2019-04-14T11:42:06.227Z,26.67
2019-04-14T11:44:34.314Z,26.90
2019-04-14T11:47:02.831Z,27.87
2019-04-14T11:49:30.523Z,27.17
2019-04-14T11:51:58.187Z,28.63
2019-04-14T11:54:25.838Z,28.10
2019-04-14T11:56:53.762Z,28.13
2019-04-14T11:59:30.586Z,29.90
2019-04-14T12:02:18.472Z,29.73
2019-04-14T12:04:54.738Z,25.37
2019-04-14T12:07:42.144Z,27.07
2019-04-14T12:10:34.498Z,30.87
2019-04-14T12:13:02.430Z,27.70
2019-04-14T12:15:30.047Z,26.63
2019-04-14T12:17:57.509Z,28.77
2019-04-14T12:20:25.269Z,26.90
2019-04-14T12:22:53.098Z,27.33
2019-04-14T12:25:20.625Z,29.33
2019-04-14T12:27:48.916Z,31.03
2019-04-14T12:30:17.926Z,26.37
2019-04-14T12:32:46.213Z,26.63
2019-04-14T12:35:13.926Z,27.53
2019-04-14T12:37:41.592Z,30.00
2019-04-14T12:40:10.212Z,29.37
2019-04-14T12:43:03.608Z,29.72
2019-04-14T12:45:56.720Z,26.42
2019-04-14T12:48:51.914Z,26.60
2019-04-14T12:51:31.117Z,24.63
2019-04-14T12:53:58.703Z,29.97
2019-04-14T12:56:27.263Z,30.08
2019-04-14T12:59:14.407Z,27.43
2019-04-14T13:01:48.962Z,26.17
2019-04-14T13:04:16.552Z,29.77
2019-04-14T13:06:44.415Z,27.37
2019-04-14T13:09:14.453Z,28.57
2019-04-14T13:11:41.342Z,51.10
2019-04-14T13:14:10.272Z,27.67
2019-04-14T13:16:37.776Z,30.72
2019-04-14T13:19:05.306Z,30.60
2019-04-14T13:21:32.910Z,30.93
2019-04-14T13:24:00.360Z,27.83
2019-04-14T13:26:28.305Z,30.23
2019-04-14T13:28:55.884Z,22.30
2019-04-14T13:31:23.473Z,29.07
2019-04-14T13:33:51.018Z,29.20
2019-04-14T13:36:18.580Z,32.17
2019-04-14T13:38:46.165Z,27.32
2019-04-14T13:41:13.839Z,173.07
2019-04-14T13:43:41.365Z,26.00
2019-04-14T13:46:08.957Z,29.73
2019-04-14T13:48:36.458Z,30.00
2019-04-14T13:51:04.506Z,28.73
2019-04-14T13:53:32.074Z,28.70
2019-04-14T13:55:59.655Z,29.47
2019-04-14T13:58:27.489Z,28.00
2019-04-14T14:00:55.059Z,29.07
2019-04-14T14:03:22.653Z,27.50
2019-04-14T14:05:50.368Z,25.77
2019-04-14T14:08:17.994Z,43.15
2019-04-14T14:10:45.819Z,27.62
2019-04-14T14:13:32.510Z,33.00
2019-04-14T14:16:18.057Z,26.62
2019-04-14T14:18:50.869Z,26.50
2019-04-14T14:21:44.207Z,27.35
2019-04-14T14:24:43.436Z,25.45
2019-04-14T14:27:11.116Z,31.23
2019-04-14T14:29:39.341Z,25.57
2019-04-14T14:32:12.445Z,28.60
2019-04-14T14:34:40.329Z,23.70
2019-04-14T14:37:07.858Z,22.87
2019-04-14T14:39:35.555Z,24.43
2019-04-14T14:42:03.639Z,26.50
2019-04-14T14:44:55.183Z,21.37
2019-04-14T14:47:25.601Z,24.23
2019-04-14T14:50:03.709Z,22.80
2019-04-14T14:52:31.756Z,21.67
2019-04-14T14:54:59.353Z,21.07
2019-04-14T14:57:26.977Z,24.77
2019-04-14T14:59:54.851Z,23.35
2019-04-14T15:02:22.692Z,20.10
2019-04-14T15:04:50.542Z,23.30
2019-04-14T15:07:18.375Z,21.73
2019-04-14T15:09:46.214Z,21.97
2019-04-14T15:12:13.770Z,24.77
2019-04-14T15:14:41.356Z,24.70
2019-04-14T15:17:09.244Z,23.90
2019-04-14T15:19:36.811Z,20.48
2019-04-14T15:22:04.629Z,21.65
2019-04-14T15:24:32.104Z,23.42
2019-04-14T15:26:59.782Z,20.32
2019-04-14T15:29:27.739Z,20.82
2019-04-14T15:31:55.372Z,21.30
2019-04-14T15:34:22.939Z,21.62
2019-04-14T15:36:50.856Z,23.62
2019-04-14T15:39:18.759Z,21.65
2019-04-14T15:41:46.588Z,22.22
2019-04-14T15:44:14.190Z,23.67
2019-04-14T15:46:42.029Z,21.20
2019-04-14T15:49:09.622Z,18.80
2019-04-14T15:51:37.190Z,21.10
2019-04-14T15:54:04.753Z,19.73
2019-04-14T15:56:50.568Z,19.65
2019-04-14T15:59:29.691Z,23.87
2019-04-14T16:02:16.238Z,17.95
2019-04-14T16:05:07.062Z,19.77
2019-04-14T16:07:47.879Z,20.63
2019-04-14T16:10:43.810Z,16.90
2019-04-14T16:13:28.033Z,18.43
2019-04-14T16:16:01.582Z,19.60
2019-04-14T16:18:49.894Z,20.27
2019-04-14T16:21:17.468Z,25.80
2019-04-14T16:23:50.654Z,18.73
2019-04-14T16:26:46.066Z,21.40
2019-04-14T16:29:33.256Z,20.87
2019-04-14T16:32:19.072Z,17.03
2019-04-14T16:34:56.446Z,19.57
2019-04-14T16:37:24.043Z,19.87
2019-04-14T16:39:51.628Z,16.47
2019-04-14T16:42:19.473Z,17.07
2019-04-14T16:44:46.926Z,17.93
2019-04-14T16:47:14.507Z,18.00
2019-04-14T16:49:42.054Z,18.73
2019-04-14T16:52:27.727Z,17.07
2019-04-14T16:55:00.664Z,18.73
2019-04-14T16:57:59.853Z,16.87
2019-04-14T17:00:31.098Z,19.00
2019-04-14T17:02:58.688Z,17.70
2019-04-14T17:05:26.172Z,19.03
2019-04-14T17:07:53.879Z,18.30
2019-04-14T17:10:22.412Z,19.60
2019-04-14T17:12:50.052Z,18.60
2019-04-14T17:15:36.008Z,17.20
2019-04-14T17:18:23.438Z,16.53
2019-04-14T17:20:58.017Z,16.40
2019-04-14T17:23:41.157Z,18.73
2019-04-14T17:26:13.784Z,15.63
2019-04-14T17:29:13.086Z,16.73
2019-04-14T17:32:02.686Z,18.37
2019-04-14T17:34:36.999Z,19.50
2019-04-14T17:37:22.440Z,16.57
2019-04-14T17:39:56.994Z,15.77
2019-04-14T17:42:27.924Z,18.87
2019-04-14T17:45:14.918Z,15.47
2019-04-14T17:48:05.756Z,17.20
2019-04-14T17:50:47.541Z,18.13
2019-04-14T17:53:23.503Z,22.53
2019-04-14T17:56:06.930Z,14.53
2019-04-14T17:58:50.645Z,13.83
2019-04-14T18:01:37.008Z,17.83
2019-04-14T18:04:09.370Z,14.98
2019-04-14T18:07:05.524Z,14.67
2019-04-14T18:09:39.206Z,14.70
2019-04-14T18:12:26.931Z,13.53
2019-04-14T18:15:12.317Z,14.83
2019-04-14T18:18:09.248Z,17.97
2019-04-14T18:20:40.505Z,16.03
2019-04-14T18:23:08.055Z,12.97
2019-04-14T18:25:35.797Z,13.37
2019-04-14T18:28:40.858Z,13.17
2019-04-14T18:31:17.633Z,15.37
2019-04-14T18:34:00.564Z,13.70
2019-04-14T18:36:47.598Z,13.67
2019-04-14T18:39:50.078Z,13.10
2019-04-14T18:42:21.572Z,11.17
2019-04-14T18:45:08.895Z,11.80
2019-04-14T18:47:47.952Z,12.93
2019-04-14T18:50:30.991Z,12.17
2019-04-14T18:53:02.612Z,13.50
2019-04-14T18:55:58.211Z,13.20
2019-04-14T18:58:45.454Z,14.07
2019-04-14T19:01:18.001Z,12.67
2019-04-14T19:03:45.519Z,11.97
2019-04-14T19:06:13.099Z,13.87
2019-04-14T19:08:40.583Z,10.47
2019-04-14T19:11:30.473Z,9.33
2019-04-14T19:13:58.234Z,12.00
2019-04-14T19:16:39.568Z,11.77
2019-04-14T19:19:04.405Z,12.70
2019-04-14T19:21:32.026Z,15.43
2019-04-14T19:23:59.563Z,15.33
2019-04-14T19:26:27.700Z,12.97
2019-04-14T19:28:55.336Z,11.13
2019-04-14T19:31:22.822Z,11.33
2019-04-14T19:33:50.392Z,10.80
2019-04-14T19:36:18.318Z,11.53
2019-04-14T19:38:46.137Z,11.93
2019-04-14T19:41:13.742Z,10.53
2019-04-14T19:43:41.360Z,12.30
2019-04-14T19:46:08.921Z,12.47
2019-04-14T19:48:36.652Z,14.33
2019-04-14T19:51:04.379Z,11.87
2019-04-14T19:53:31.876Z,10.27
2019-04-14T19:55:59.430Z,11.17
2019-04-14T19:58:29.027Z,9.67
2019-04-14T20:00:56.624Z,13.73
2019-04-14T20:03:24.565Z,11.73
2019-04-14T20:05:52.164Z,9.33
2019-04-14T20:08:19.715Z,12.70
2019-04-14T20:10:47.263Z,11.57
2019-04-14T20:13:15.909Z,11.17
2019-04-14T20:16:03.227Z,12.07
2019-04-14T20:18:44.610Z,13.30
2019-04-14T20:21:31.300Z,11.00
2019-04-14T20:24:12.245Z,12.50
2019-04-14T20:27:01.963Z,11.90
2019-04-14T20:29:33.690Z,11.40
2019-04-14T20:32:26.622Z,11.77
2019-04-14T20:34:54.572Z,12.27
2019-04-14T20:37:22.167Z,13.93
2019-04-14T20:39:49.828Z,13.23
2019-04-14T20:42:17.441Z,12.77
2019-04-14T20:44:45.377Z,14.87
2019-04-14T20:47:13.837Z,12.53
2019-04-14T20:49:41.931Z,13.00
2019-04-14T20:52:09.595Z,12.40
2019-04-14T20:54:37.176Z,13.33
2019-04-14T20:57:05.053Z,13.23
2019-04-14T20:59:32.544Z,12.77
2019-04-14T21:02:14.578Z,15.13
2019-04-14T21:05:00.326Z,12.03
2019-04-14T21:07:57.173Z,10.77
2019-04-14T21:10:44.430Z,12.73
2019-04-14T21:13:24.508Z,13.60
2019-04-14T21:15:57.279Z,12.43
2019-04-14T21:18:42.218Z,14.93
2019-04-14T21:21:38.528Z,12.43
2019-04-14T21:24:23.941Z,11.83
2019-04-14T21:27:11.227Z,13.10
2019-04-14T21:30:04.271Z,14.30
2019-04-14T21:32:36.474Z,12.13
2019-04-14T21:35:22.316Z,16.40
2019-04-14T21:38:15.517Z,15.90
2019-04-14T21:40:45.592Z,14.10
2019-04-14T21:43:13.355Z,14.17
2019-04-14T21:45:40.915Z,14.80
2019-04-14T21:48:08.782Z,13.53
2019-04-14T21:50:36.683Z,13.17
2019-04-14T21:53:04.578Z,17.87
2019-04-14T21:55:32.350Z,13.33
2019-04-14T21:58:19.637Z,13.00
2019-04-14T22:01:41.093Z,16.00
2019-04-14T22:04:18.407Z,15.80
2019-04-14T22:06:46.485Z,14.40
2019-04-14T22:09:20.378Z,16.33
2019-04-14T22:11:47.919Z,12.93
2019-04-14T22:14:15.531Z,15.37
2019-04-14T22:17:01.459Z,17.47
2019-04-14T22:19:29.708Z,15.97
2019-04-14T22:22:03.172Z,14.40
2019-04-14T22:24:30.968Z,15.80
2019-04-14T22:26:58.527Z,13.90
2019-04-14T22:29:54.795Z,15.73
2019-04-14T22:32:24.492Z,15.93
2019-04-14T22:34:53.713Z,16.97
2019-04-14T22:40:50.028Z,15.50
2019-04-14T22:46:36.874Z,17.80
2019-04-14T22:49:06.369Z,18.70
2019-04-14T22:51:53.357Z,19.93
2019-04-14T22:54:22.945Z,15.63
2019-04-14T22:56:52.387Z,16.03
2019-04-14T22:59:23.860Z,16.67
2019-04-14T23:02:04.227Z,14.50
2019-04-14T23:04:58.001Z,17.43
2019-04-14T23:07:42.149Z,16.57
2019-04-14T23:10:44.062Z,18.87
2019-04-14T23:13:32.176Z,20.53
2019-04-14T23:16:18.654Z,17.73
2019-04-14T23:18:52.587Z,21.60
2019-04-14T23:21:41.890Z,18.17
2019-04-14T23:24:15.071Z,22.83
2019-04-14T23:26:52.277Z,19.80
2019-04-14T23:29:11.963Z,20.63
2019-04-14T23:31:39.498Z,19.93
2019-04-14T23:34:11.016Z,19.00
2019-04-14T23:36:38.599Z,19.13
2019-04-14T23:39:12.015Z,18.57
2019-04-14T23:45:03.146Z,21.70
2019-04-14T23:50:35.953Z,19.83
2019-04-14T23:53:03.527Z,22.23
2019-04-14T23:59:10.467Z,18.83
